createdAt,value
2019-05-06T00:02:25.801Z,1.09
2019-05-06T00:04:56.660Z,1.06
2019-05-06T00:07:29.480Z,1.06
2019-05-06T00:09:59.994Z,1.05
2019-05-06T00:12:33.498Z,0.99
2019-05-06T00:15:04.387Z,0.97
2019-05-06T00:17:35.517Z,0.95
2019-05-06T00:20:10.276Z,0.94
2019-05-06T00:22:44.595Z,0.88
2019-05-06T00:25:19.294Z,0.86
2019-05-06T00:28:07.170Z,0.82
2019-05-06T00:30:38.253Z,0.82
2019-05-06T00:33:09.832Z,0.83
2019-05-06T00:35:41.627Z,0.77
2019-05-06T00:38:13.894Z,0.77
2019-05-06T00:40:46.256Z,0.76
2019-05-06T00:43:16.739Z,0.72
2019-05-06T00:45:47.207Z,0.70
2019-05-06T00:48:17.918Z,0.78
2019-05-06T00:50:53.571Z,0.79
2019-05-06T00:53:25.902Z,0.82
2019-05-06T00:55:56.407Z,0.83
2019-05-06T00:58:27.098Z,0.87
2019-05-06T01:00:57.461Z,0.91
2019-05-06T01:03:47.060Z,0.92
2019-05-06T01:06:17.598Z,0.92
2019-05-06T01:08:48.076Z,0.97
2019-05-06T01:11:18.554Z,0.98
2019-05-06T01:14:07.152Z,0.99
2019-05-06T01:16:38.056Z,1.00
2019-05-06T01:19:08.505Z,1.00
2019-05-06T01:21:39.019Z,0.98
2019-05-06T01:24:09.454Z,0.96
2019-05-06T01:26:39.935Z,0.94
2019-05-06T01:29:14.391Z,0.90
2019-05-06T01:31:46.072Z,0.85
2019-05-06T01:34:16.672Z,0.81
2019-05-06T01:36:56.084Z,0.77
2019-05-06T01:39:44.276Z,0.74
2019-05-06T01:42:24.633Z,0.69
2019-05-06T01:44:55.566Z,0.74
2019-05-06T01:47:26.030Z,0.73
2019-05-06T01:49:58.654Z,0.69
2019-05-06T01:52:29.259Z,0.70
2019-05-06T01:54:59.969Z,0.72
2019-05-06T01:57:30.477Z,0.70
2019-05-06T02:00:01.417Z,0.70
2019-05-06T02:02:37.475Z,0.71
2019-05-06T02:05:09.167Z,0.73
2019-05-06T02:07:39.569Z,0.72
2019-05-06T02:10:10.044Z,0.77
2019-05-06T02:12:40.487Z,0.84
2019-05-06T02:15:10.951Z,0.88
2019-05-06T02:17:55.122Z,0.83
2019-05-06T02:20:25.834Z,0.90
2019-05-06T02:23:08.567Z,0.97
2019-05-06T02:25:45.743Z,1.03
2019-05-06T02:28:18.271Z,0.98
2019-05-06T02:31:08.092Z,1.08
2019-05-06T02:34:06.453Z,1.11
2019-05-06T02:36:58.614Z,1.11
2019-05-06T02:39:29.121Z,1.14
2019-05-06T02:41:59.668Z,1.15
2019-05-06T02:44:44.116Z,1.11
2019-05-06T02:47:34.201Z,1.11
2019-05-06T02:50:05.953Z,1.16
2019-05-06T02:52:36.758Z,1.16
2019-05-06T02:55:07.764Z,1.19
2019-05-06T02:57:39.309Z,1.23
2019-05-06T03:00:13.971Z,1.29
2019-05-06T03:02:47.951Z,1.35
2019-05-06T03:05:19.302Z,1.36
2019-05-06T03:07:49.869Z,1.37
2019-05-06T03:10:24.343Z,1.40
2019-05-06T03:12:54.142Z,1.43
2019-05-06T03:15:24.744Z,1.46
2019-05-06T03:17:55.607Z,1.46
2019-05-06T03:20:54.827Z,1.44
2019-05-06T03:23:27.431Z,1.46
2019-05-06T03:25:59.279Z,1.51
2019-05-06T03:28:33.453Z,1.48
2019-05-06T03:31:06.859Z,1.49
2019-05-06T03:33:59.769Z,1.51
2019-05-06T03:36:25.003Z,1.49
2019-05-06T03:38:47.703Z,1.48
2019-05-06T03:41:18.172Z,1.53
2019-05-06T03:43:48.749Z,1.55
2019-05-06T03:46:42.989Z,1.59
2019-05-06T03:49:15.455Z,1.64
2019-05-06T03:51:46.229Z,1.66
2019-05-06T03:54:16.734Z,1.70
2019-05-06T03:56:47.333Z,1.73
2019-05-06T03:59:18.465Z,1.76
2019-05-06T04:01:53.318Z,1.75
2019-05-06T04:04:24.192Z,1.78
2019-05-06T04:06:55.221Z,1.79
2019-05-06T04:09:25.676Z,1.84
2019-05-06T04:12:03.652Z,1.86
2019-05-06T04:14:34.650Z,1.91
2019-05-06T04:17:16.507Z,1.96
2019-05-06T04:19:53.404Z,2.04
2019-05-06T04:22:55.049Z,2.08
2019-05-06T04:25:43.642Z,2.12
2019-05-06T04:28:19.928Z,2.17
2019-05-06T04:30:50.764Z,2.20
2019-05-06T04:33:23.688Z,2.25
2019-05-06T04:35:54.256Z,2.28
2019-05-06T04:38:38.588Z,2.35
2019-05-06T04:41:14.718Z,2.39
2019-05-06T04:43:45.229Z,2.45
2019-05-06T04:46:16.878Z,2.50
2019-05-06T04:48:48.086Z,2.46
2019-05-06T04:51:18.889Z,2.52
2019-05-06T04:53:55.453Z,2.55
2019-05-06T04:56:29.455Z,2.64
2019-05-06T04:59:06.289Z,2.72
2019-05-06T05:01:35.860Z,2.80
2019-05-06T05:04:22.980Z,2.85
2019-05-06T05:06:39.826Z,2.90
2019-05-06T05:09:17.326Z,2.96
2019-05-06T05:11:53.411Z,3.03
2019-05-06T05:14:32.782Z,3.10
2019-05-06T05:17:09.209Z,3.12
2019-05-06T05:19:42.867Z,3.22
2019-05-06T05:22:13.841Z,3.33
2019-05-06T05:24:44.248Z,3.44
2019-05-06T05:27:14.742Z,3.52
2019-05-06T05:29:46.183Z,3.62
2019-05-06T05:32:16.843Z,3.70
2019-05-06T05:34:48.615Z,3.72
2019-05-06T05:37:22.783Z,3.83
2019-05-06T05:39:53.896Z,3.88
2019-05-06T05:42:49.635Z,4.00
2019-05-06T05:45:22.174Z,4.06
2019-05-06T05:47:54.931Z,4.21
2019-05-06T05:50:32.490Z,4.34
2019-05-06T05:53:04.640Z,4.45
2019-05-06T05:55:35.222Z,4.54
2019-05-06T05:58:16.335Z,4.49
2019-05-06T06:00:48.636Z,4.50
2019-05-06T06:03:22.062Z,4.54
2019-05-06T06:05:56.646Z,4.69
2019-05-06T06:08:27.447Z,4.77
2019-05-06T06:11:08.089Z,4.82
2019-05-06T06:13:39.112Z,4.90
2019-05-06T06:16:38.666Z,5.02
2019-05-06T06:19:26.737Z,5.07
2019-05-06T06:22:03.721Z,5.16
2019-05-06T06:24:35.943Z,5.39
2019-05-06T06:27:07.097Z,5.70
2019-05-06T06:29:39.196Z,5.84
2019-05-06T06:32:14.573Z,5.90
2019-05-06T06:35:14.724Z,5.91
2019-05-06T06:38:23.868Z,5.86
2019-05-06T06:40:57.266Z,5.83
2019-05-06T06:43:27.807Z,5.75
2019-05-06T06:45:58.283Z,5.92
2019-05-06T06:48:28.695Z,6.15
2019-05-06T06:50:59.372Z,6.19
2019-05-06T06:53:29.881Z,6.21
2019-05-06T06:56:29.652Z,6.12
2019-05-06T06:59:22.720Z,6.07
2019-05-06T07:02:12.677Z,5.89
2019-05-06T07:04:49.056Z,5.83
2019-05-06T07:07:22.709Z,5.75
2019-05-06T07:09:55.622Z,5.91
2019-05-06T07:12:32.889Z,6.18
2019-05-06T07:15:03.850Z,6.43
2019-05-06T07:17:37.580Z,6.52
2019-05-06T07:20:13.096Z,6.52
2019-05-06T07:22:43.849Z,6.46
2019-05-06T07:25:15.129Z,6.39
2019-05-06T07:27:45.864Z,6.53
2019-05-06T07:30:18.271Z,6.58
2019-05-06T07:32:48.899Z,6.82
2019-05-06T07:35:19.821Z,7.17
2019-05-06T07:37:53.002Z,7.36
2019-05-06T07:40:26.964Z,7.56
2019-05-06T07:42:59.068Z,7.42
2019-05-06T07:45:43.284Z,7.62
2019-05-06T07:48:16.995Z,7.57
2019-05-06T07:50:49.334Z,7.40
2019-05-06T07:53:19.822Z,7.23
2019-05-06T07:55:52.494Z,7.18
2019-05-06T07:58:32.237Z,7.07
2019-05-06T08:01:06.398Z,6.75
2019-05-06T08:03:42.613Z,6.74
2019-05-06T08:06:13.209Z,6.67
2019-05-06T08:08:43.931Z,6.83
2019-05-06T08:11:22.277Z,7.13
2019-05-06T08:13:53.075Z,7.53
2019-05-06T08:16:24.454Z,7.95
2019-05-06T08:18:55.095Z,8.36
2019-05-06T08:21:27.167Z,8.62
2019-05-06T08:24:03.076Z,8.92
2019-05-06T08:26:33.552Z,8.94
2019-05-06T08:29:03.986Z,9.11
2019-05-06T08:31:34.439Z,9.23
2019-05-06T08:34:04.926Z,9.27
2019-05-06T08:36:58.407Z,8.99
2019-05-06T08:39:32.657Z,8.86
2019-05-06T08:42:03.494Z,8.65
2019-05-06T08:44:49.743Z,8.53
2019-05-06T08:47:22.224Z,8.38
2019-05-06T08:50:27.317Z,8.34
2019-05-06T08:53:18.939Z,8.32
2019-05-06T08:55:53.136Z,8.82
2019-05-06T08:58:47.538Z,8.92
2019-05-06T09:01:43.771Z,8.96
2019-05-06T09:04:16.298Z,9.00
2019-05-06T09:06:48.868Z,8.93
2019-05-06T09:09:27.005Z,8.97
2019-05-06T09:11:57.451Z,8.96
2019-05-06T09:14:28.388Z,8.84
2019-05-06T09:17:03.102Z,8.65
2019-05-06T09:19:34.049Z,8.83
2019-05-06T09:22:04.986Z,9.00
2019-05-06T09:24:42.647Z,8.76
2019-05-06T09:27:22.583Z,8.32
2019-05-06T09:29:59.423Z,8.15
2019-05-06T09:32:36.220Z,7.74
2019-05-06T09:35:07.505Z,7.42
2019-05-06T09:37:43.066Z,7.44
2019-05-06T09:40:13.614Z,7.41
2019-05-06T09:42:44.090Z,7.40
2019-05-06T09:45:14.924Z,7.23
2019-05-06T09:48:04.126Z,7.14
2019-05-06T09:50:49.028Z,7.27
2019-05-06T09:56:39.269Z,7.43
2019-05-06T09:59:09.892Z,8.22
2019-05-06T10:01:43.707Z,9.22
2019-05-06T10:04:17.082Z,9.83
2019-05-06T10:06:57.097Z,9.96
2019-05-06T10:09:26.947Z,9.82
2019-05-06T10:11:57.782Z,9.24
2019-05-06T10:14:28.258Z,8.91
2019-05-06T10:17:04.425Z,8.65
2019-05-06T10:19:33.734Z,8.44
2019-05-06T10:22:04.284Z,8.22
2019-05-06T10:24:34.903Z,8.12
2019-05-06T10:27:05.593Z,8.09
2019-05-06T10:29:49.432Z,7.88
2019-05-06T10:32:42.662Z,7.96
2019-05-06T10:35:14.309Z,8.19
2019-05-06T10:38:12.764Z,8.38
2019-05-06T10:41:00.912Z,8.54
2019-05-06T10:43:52.416Z,9.01
2019-05-06T10:46:25.126Z,9.70
2019-05-06T10:48:55.762Z,10.54
2019-05-06T10:51:32.487Z,11.39
2019-05-06T10:54:03.339Z,11.56
2019-05-06T10:56:57.561Z,11.26
2019-05-06T10:59:29.661Z,11.29
2019-05-06T11:02:06.558Z,11.22
2019-05-06T11:04:38.300Z,11.41
2019-05-06T11:07:28.206Z,11.38
2019-05-06T11:09:49.628Z,10.80
2019-05-06T11:12:24.370Z,10.75
2019-05-06T11:14:57.736Z,10.43
2019-05-06T11:17:28.777Z,10.31
2019-05-06T11:20:19.324Z,10.12
2019-05-06T11:22:52.684Z,9.96
2019-05-06T11:25:26.354Z,10.50
2019-05-06T11:28:02.957Z,11.45
2019-05-06T11:30:56.800Z,11.78
2019-05-06T11:33:57.144Z,12.08
2019-05-06T11:36:37.986Z,12.15
2019-05-06T11:39:09.688Z,12.07
2019-05-06T11:41:49.427Z,11.52
2019-05-06T11:44:12.929Z,11.12
2019-05-06T11:46:43.595Z,10.93
2019-05-06T11:49:23.555Z,10.86
2019-05-06T11:51:56.346Z,10.92
2019-05-06T11:54:27.048Z,11.43
2019-05-06T11:57:13.054Z,11.51
2019-05-06T11:59:45.080Z,11.57
2019-05-06T12:02:18.931Z,11.65
2019-05-06T12:04:52.581Z,11.42
2019-05-06T12:07:25.693Z,11.05
2019-05-06T12:09:56.171Z,11.01
2019-05-06T12:12:26.607Z,10.78
2019-05-06T12:15:03.606Z,10.66
2019-05-06T12:17:36.142Z,10.94
2019-05-06T12:20:06.904Z,11.05
2019-05-06T12:22:37.303Z,11.09
2019-05-06T12:25:14.388Z,10.84
2019-05-06T12:27:52.707Z,11.04
2019-05-06T12:30:24.764Z,10.92
2019-05-06T12:33:14.133Z,10.51
2019-05-06T12:35:48.125Z,10.43
2019-05-06T12:38:32.986Z,10.14
2019-05-06T12:41:03.739Z,9.93
2019-05-06T12:43:43.197Z,9.86
2019-05-06T12:46:27.603Z,9.66
2019-05-06T12:49:03.137Z,9.65
2019-05-06T12:51:37.972Z,9.52
2019-05-06T12:54:09.901Z,9.60
2019-05-06T12:56:42.072Z,9.64
2019-05-06T12:59:13.078Z,9.51
2019-05-06T13:01:45.423Z,9.52
2019-05-06T13:04:15.760Z,9.65
2019-05-06T13:07:07.136Z,9.63
2019-05-06T13:09:42.501Z,9.71
2019-05-06T13:12:14.643Z,9.81
2019-05-06T13:14:47.892Z,10.01
2019-05-06T13:17:25.132Z,10.07
2019-05-06T13:19:57.271Z,10.38
2019-05-06T13:22:55.590Z,10.55
2019-05-06T13:25:32.852Z,10.48
2019-05-06T13:28:07.064Z,10.40
2019-05-06T13:30:43.184Z,10.43
2019-05-06T13:33:34.160Z,10.59
2019-05-06T13:36:13.214Z,10.76
2019-05-06T13:38:43.278Z,10.97
2019-05-06T13:41:15.977Z,10.66
2019-05-06T13:43:54.042Z,10.29
2019-05-06T13:46:36.744Z,9.93
2019-05-06T13:49:30.643Z,9.79
2019-05-06T13:52:04.631Z,9.69
2019-05-06T13:54:39.461Z,9.41
2019-05-06T13:57:12.488Z,9.16
2019-05-06T13:59:44.108Z,9.23
2019-05-06T14:02:43.663Z,9.50
2019-05-06T14:05:14.231Z,9.69
2019-05-06T14:07:45.449Z,9.97
2019-05-06T14:10:22.637Z,10.07
2019-05-06T14:12:56.335Z,10.17
2019-05-06T14:15:27.099Z,10.33
2019-05-06T14:18:02.536Z,10.68
2019-05-06T14:20:33.703Z,10.93
2019-05-06T14:23:05.388Z,11.11
2019-05-06T14:25:53.888Z,11.12
2019-05-06T14:28:32.857Z,10.89
2019-05-06T14:31:10.546Z,10.54
2019-05-06T14:33:42.812Z,10.50
2019-05-06T14:36:18.465Z,10.33
2019-05-06T14:38:56.801Z,10.36
2019-05-06T14:41:32.567Z,10.26
2019-05-06T14:44:05.236Z,10.37
2019-05-06T14:47:08.652Z,10.33
2019-05-06T14:49:43.245Z,10.19
2019-05-06T14:52:23.095Z,9.78
2019-05-06T14:55:17.471Z,9.70
2019-05-06T14:57:50.873Z,9.68
2019-05-06T15:00:31.981Z,9.61
2019-05-06T15:03:02.922Z,9.59
2019-05-06T15:05:36.546Z,9.52
2019-05-06T15:08:09.895Z,9.39
2019-05-06T15:10:40.329Z,9.44
2019-05-06T15:13:12.731Z,9.48
2019-05-06T15:15:48.886Z,9.55
2019-05-06T15:18:19.440Z,9.46
2019-05-06T15:20:50.154Z,9.38
2019-05-06T15:23:22.405Z,9.23
2019-05-06T15:25:56.418Z,9.11
2019-05-06T15:28:26.833Z,9.03
2019-05-06T15:31:05.348Z,9.09
2019-05-06T15:33:41.699Z,9.11
2019-05-06T15:36:22.211Z,9.13
2019-05-06T15:38:52.780Z,9.17
2019-05-06T15:41:43.160Z,9.12
2019-05-06T15:44:19.321Z,9.10
2019-05-06T15:46:56.918Z,8.90
2019-05-06T15:49:28.135Z,8.86
2019-05-06T15:51:59.099Z,8.78
2019-05-06T15:54:34.874Z,8.70
2019-05-06T15:57:11.438Z,8.65
2019-05-06T15:59:44.543Z,8.59
2019-05-06T16:02:14.455Z,8.55
2019-05-06T16:04:48.579Z,8.50
2019-05-06T16:07:25.265Z,8.48
2019-05-06T16:09:57.306Z,8.46
2019-05-06T16:12:29.211Z,8.44
2019-05-06T16:15:03.163Z,8.42
2019-05-06T16:17:34.214Z,8.43
2019-05-06T16:20:12.821Z,8.51
2019-05-06T16:22:45.905Z,8.41
2019-05-06T16:25:16.713Z,8.46
2019-05-06T16:27:55.731Z,8.55
2019-05-06T16:30:26.217Z,8.53
2019-05-06T16:32:56.885Z,8.51
2019-05-06T16:35:32.677Z,8.46
2019-05-06T16:38:03.238Z,8.53
2019-05-06T16:40:37.643Z,8.64
2019-05-06T16:43:09.481Z,8.75
2019-05-06T16:45:39.982Z,8.77
2019-05-06T16:48:12.857Z,8.70
2019-05-06T16:50:46.298Z,8.53
2019-05-06T16:53:19.834Z,8.46
2019-05-06T16:56:13.587Z,8.38
2019-05-06T16:58:48.091Z,8.39
2019-05-06T17:01:22.098Z,8.37
2019-05-06T17:04:08.269Z,8.37
2019-05-06T17:06:51.916Z,8.29
2019-05-06T17:09:29.768Z,8.31
2019-05-06T17:12:04.831Z,8.28
2019-05-06T17:14:35.656Z,8.30
2019-05-06T17:17:07.657Z,8.29
2019-05-06T17:19:42.221Z,8.13
2019-05-06T17:22:13.815Z,8.09
2019-05-06T17:24:48.658Z,7.97
2019-05-06T17:27:23.542Z,7.89
2019-05-06T17:30:22.607Z,7.80
2019-05-06T17:33:03.815Z,7.75
2019-05-06T17:35:37.025Z,7.71
2019-05-06T17:38:12.930Z,7.71
2019-05-06T17:40:43.381Z,7.70
2019-05-06T17:43:15.439Z,7.61
2019-05-06T17:46:01.767Z,7.54
2019-05-06T17:48:49.372Z,7.51
2019-05-06T17:51:42.590Z,7.47
2019-05-06T17:54:38.285Z,7.37
2019-05-06T17:57:15.614Z,7.33
2019-05-06T17:59:59.101Z,7.30
2019-05-06T18:02:29.800Z,7.25
2019-05-06T18:05:05.270Z,7.17
2019-05-06T18:07:37.195Z,7.09
2019-05-06T18:10:09.282Z,7.00
2019-05-06T18:12:42.422Z,6.93
2019-05-06T18:15:15.896Z,6.88
2019-05-06T18:17:47.322Z,6.80
2019-05-06T18:20:22.392Z,6.70
2019-05-06T18:22:57.646Z,6.59
2019-05-06T18:25:29.088Z,6.50
2019-05-06T18:27:59.865Z,6.38
2019-05-06T18:30:42.940Z,6.27
2019-05-06T18:33:15.056Z,6.17
2019-05-06T18:35:47.038Z,6.07
2019-05-06T18:38:27.096Z,5.99
2019-05-06T18:41:15.435Z,5.89
2019-05-06T18:43:43.886Z,5.81
2019-05-06T18:46:26.104Z,5.70
2019-05-06T18:48:59.660Z,5.62
2019-05-06T18:51:38.103Z,5.52
2019-05-06T18:54:12.905Z,5.42
2019-05-06T18:56:52.201Z,5.32
2019-05-06T18:59:26.103Z,5.21
2019-05-06T19:02:01.941Z,5.10
2019-05-06T19:04:43.275Z,5.05
2019-05-06T19:07:17.245Z,5.00
2019-05-06T19:10:10.384Z,4.98
2019-05-06T19:12:46.154Z,4.93
2019-05-06T19:15:16.566Z,4.89
2019-05-06T19:17:52.489Z,4.77
2019-05-06T19:20:24.533Z,4.72
2019-05-06T19:22:58.704Z,4.66
2019-05-06T19:25:29.198Z,4.63
2019-05-06T19:28:03.098Z,4.56
2019-05-06T19:30:35.171Z,4.50
2019-05-06T19:33:08.784Z,4.49
2019-05-06T19:35:42.717Z,4.45
2019-05-06T19:38:24.316Z,4.40
2019-05-06T19:40:52.156Z,4.35
2019-05-06T19:43:22.242Z,4.33
2019-05-06T19:45:53.235Z,4.36
2019-05-06T19:48:27.076Z,4.35
2019-05-06T19:51:00.105Z,4.35
2019-05-06T19:53:32.343Z,4.33
2019-05-06T19:56:08.993Z,4.34
2019-05-06T19:58:40.328Z,4.33
2019-05-06T20:01:22.871Z,4.29
2019-05-06T20:03:53.880Z,4.21
2019-05-06T20:06:57.177Z,4.10
2019-05-06T20:10:13.210Z,4.02
2019-05-06T20:12:59.474Z,3.86
2019-05-06T20:15:42.948Z,3.78
2019-05-06T20:18:21.651Z,3.72
2019-05-06T20:20:47.361Z,3.69
2019-05-06T20:23:32.806Z,3.70
2019-05-06T20:26:04.665Z,3.69
2019-05-06T20:28:37.997Z,3.65
2019-05-06T20:31:09.646Z,3.65
2019-05-06T20:33:53.650Z,3.63
2019-05-06T20:36:33.276Z,3.63
2019-05-06T20:39:05.629Z,3.60
2019-05-06T20:41:42.682Z,3.58
2019-05-06T20:44:13.473Z,3.58
2019-05-06T20:46:52.712Z,3.57
2019-05-06T20:49:28.304Z,3.56
2019-05-06T20:51:58.950Z,3.52
2019-05-06T20:54:30.009Z,3.51
2019-05-06T20:57:02.545Z,3.49
2019-05-06T20:59:34.548Z,3.49
2019-05-06T21:02:05.041Z,3.47
2019-05-06T21:04:35.847Z,3.46
2019-05-06T21:07:06.297Z,3.46
2019-05-06T21:09:36.705Z,3.43
2019-05-06T21:12:21.904Z,3.40
2019-05-06T21:14:54.213Z,3.36
2019-05-06T21:17:26.915Z,3.38
2019-05-06T21:19:58.712Z,3.43
2019-05-06T21:22:29.239Z,3.46
2019-05-06T21:25:02.241Z,3.48
2019-05-06T21:27:35.226Z,3.53
2019-05-06T21:30:09.289Z,3.52
2019-05-06T21:32:42.850Z,3.53
2019-05-06T21:35:13.286Z,3.54
2019-05-06T21:37:44.919Z,3.52
2019-05-06T21:40:16.772Z,3.45
2019-05-06T21:42:49.080Z,3.36
2019-05-06T21:45:22.145Z,3.27
2019-05-06T21:47:53.133Z,3.21
2019-05-06T21:50:23.927Z,3.19
2019-05-06T21:52:58.358Z,3.18
2019-05-06T21:55:32.455Z,3.13
2019-05-06T21:58:03.095Z,3.12
2019-05-06T22:00:46.320Z,3.12
2019-05-06T22:03:17.080Z,3.15
2019-05-06T22:05:48.089Z,3.12
2019-05-06T22:08:25.805Z,3.05
2019-05-06T22:10:56.216Z,3.00
2019-05-06T22:13:29.193Z,2.90
2019-05-06T22:16:02.302Z,2.85
2019-05-06T22:18:32.030Z,2.84
2019-05-06T22:21:22.721Z,2.80
2019-05-06T22:24:04.190Z,2.78
2019-05-06T22:26:34.264Z,2.76
2019-05-06T22:29:04.880Z,2.74
2019-05-06T22:31:36.871Z,2.75
2019-05-06T22:34:09.656Z,2.72
2019-05-06T22:36:40.073Z,2.72
2019-05-06T22:39:12.934Z,2.71
2019-05-06T22:41:44.054Z,2.71
2019-05-06T22:44:17.000Z,2.68
2019-05-06T22:46:49.886Z,2.64
2019-05-06T22:49:34.958Z,2.64
2019-05-06T22:52:08.750Z,2.64
2019-05-06T22:54:39.173Z,2.60
2019-05-06T22:57:11.922Z,2.58
2019-05-06T22:59:42.733Z,2.56
2019-05-06T23:02:52.714Z,2.54
2019-05-06T23:05:26.101Z,2.50
2019-05-06T23:07:56.524Z,2.40
2019-05-06T23:10:30.964Z,2.36
2019-05-06T23:13:06.921Z,2.34
2019-05-06T23:15:37.693Z,2.32
2019-05-06T23:18:14.869Z,2.25
2019-05-06T23:20:45.312Z,2.20
2019-05-06T23:23:16.015Z,2.16
2019-05-06T23:26:05.418Z,2.10
2019-05-06T23:28:35.890Z,2.05
2019-05-06T23:31:06.868Z,1.97
2019-05-06T23:33:37.316Z,1.93
2019-05-06T23:36:08.805Z,1.86
2019-05-06T23:39:15.423Z,1.82
2019-05-06T23:42:32.253Z,1.73
2019-05-06T23:45:38.258Z,1.66
2019-05-06T23:48:46.676Z,1.60
2019-05-06T23:51:53.268Z,1.53
2019-05-06T23:55:18.162Z,1.48
2019-05-06T23:57:46.931Z,1.42
